KCTZ

Clinton-Sampson County Airport

Clinton, North Carolina, USA
METAR KCTZ 162345Z AUTO 00000KT 10SM CLR 03/M01 A3026 RMK AO2 T00321015
Observed Flight Rules
Dec-16 @ 23:45 UTC (29 minutes ago) Visual Flight Rules
Wind Visibility Clouds
Calm 10 miles
  • Clear skies
Temperatures Readings
Current 3°C / 37°F
Dewpoint -2°C / 28°F
Humidity 70%
Altimeter 30.26" Hg
Pressure 1025 hPa
Elevation 45
METAR KCTZ 162345Z AUTO 00000KT 10SM CLR 03/M01 A3026 RMK AO2 T00321015
Observed Flight Rules
Dec-16 @ 23:45 UTC
(29 minutes ago)
VFR
Wind Visibility
Calm 10 miles
Clouds
  • Clear skies
Temperature Dewpoint
3°C / 37°F -2°C / 28°F
Humidity Altimeter Pressure
70% 30.26" Hg 1025 hPa